Terminal Aerodrome Forecast
Issued by NWS La Crosse, WI

Home | Current Version | Previous Version | Text Only | Print | Product List | Glossary On
Versions: 1 2 3 4 5 6 7 8 9 10 11 12 13 14 15 16 17 18 19 20 21 22
000
FTUS43 KARX 031725
TAFLSE
TAF
KLSE 031725Z 0318/0418 VRB04KT P6SM OVC035
     FM032100 VRB04KT P6SM BKN150
     FM040500 14004KT P6SM -SN OVC025
     FM041000 15005KT 2SM -SN OVC015
     FM041500 15008KT 1SM -SN OVC008=

USA.gov is the U.S. government's official web portal to all federal, state and local government web resources and services.